Offutt AFB

About
Name: Offutt AFB
Identifier:  OFF/KOFF
Local Time:  21. Sep 07:07 CDT
Location
Statistics
Flights per Day:
0 flights
Distance: 675km (419mi)
Flights delayed:
50% (0 flights per day delayed)
Delay Average: 27 minutes
Current Weather
 24 C (Humidity: 83%)
  12kt (22km/h / 13mph) from 150°
  Scattered clouds at 1,300 feet (396 meter)
  Broken clouds at 2,500 feet (762 meter)
  Overcast at 10,000 feet (3,048 meter)
  16km (10 mi.)
 METAR KOFF 211056Z 15012KT 10SM SCT013 BKN025 OVC100 24/21 A2988 RMK AO2A DZE49 SLP099 RVRNO $

Current Delays

Departures
N/A
Arrivals
N/A

Destinations

Top Destinations
Airport Flights
per week
Seats
per week
  Chicago (ORD) 0 - 0 0
  Rapid City (RCA) 0 - 0 0

Airlines & Planes

Top Airlines
Airline Flights
per Day
Seats
per Day
  Miami Air International 0 -
Top Plane Types
Model Flights Seats
Boeing B737-800 0.1/day - 0